Time;durP1;ratioP1;P1;durP2;ratioP2;P2;SDS_P1;SDS_P2;PMS_P1;PMS_P2;Temp;Humidity;BMP_temperature;BMP_pressure;BME280_temperature;BME280_humidity;BME280_pressure;Samples;Min_cycle;Max_cycle;Signal;HPM_P1;HPM_P2
2023/12/05 00:00:26;;;;;;;5.60;4.80;;;4.70;99.90;;;;;;5122516;27;20960;-83
2023/12/05 00:02:53;;;;;;;6.20;4.67;;;4.70;99.90;;;;;;5128068;27;20451;-82
2023/12/05 00:05:19;;;;;;;5.33;4.63;;;4.70;99.90;;;;;;5133007;27;20448;-83
2023/12/05 00:07:46;;;;;;;7.07;4.27;;;4.80;99.90;;;;;;5133517;27;20466;-84
2023/12/05 00:10:13;;;;;;;5.50;4.90;;;4.80;99.90;;;;;;5134822;27;20453;-84
2023/12/05 00:12:40;;;;;;;7.17;5.07;;;4.80;99.90;;;;;;5132398;27;20456;-83
2023/12/05 00:15:08;;;;;;;5.40;4.50;;;4.80;99.90;;;;;;5139114;27;21155;-84
2023/12/05 00:17:36;;;;;;;5.93;4.60;;;4.80;99.90;;;;;;5131708;27;20467;-85
2023/12/05 00:20:03;;;;;;;5.87;4.60;;;4.80;99.90;;;;;;5130142;27;20494;-84
2023/12/05 00:22:30;;;;;;;4.90;4.23;;;4.80;99.90;;;;;;5136110;27;20816;-83
2023/12/05 00:24:57;;;;;;;6.30;5.70;;;4.80;99.90;;;;;;5129678;27;20504;-84
2023/12/05 00:27:24;;;;;;;7.00;5.70;;;4.80;99.90;;;;;;5137463;27;20478;-83
2023/12/05 00:29:51;;;;;;;7.07;5.30;;;4.80;99.90;;;;;;5132306;27;20455;-83
2023/12/05 00:32:17;;;;;;;6.50;5.07;;;4.80;99.90;;;;;;5121989;28;20805;-84
2023/12/05 00:34:46;;;;;;;6.37;4.73;;;4.80;99.90;;;;;;5122437;28;20487;-84
2023/12/05 00:37:13;;;;;;;6.07;5.20;;;4.80;99.90;;;;;;5130038;27;20460;-83
2023/12/05 00:39:40;;;;;;;6.17;4.70;;;4.80;99.90;;;;;;5120646;28;20507;-83
2023/12/05 00:42:07;;;;;;;10.93;6.00;;;4.80;99.90;;;;;;5121516;28;20513;-84
2023/12/05 00:44:34;;;;;;;5.50;4.87;;;4.80;99.90;;;;;;5121161;28;20542;-83
2023/12/05 00:47:03;;;;;;;6.00;4.47;;;4.80;99.90;;;;;;5120645;28;20951;-82
2023/12/05 00:49:31;;;;;;;6.40;4.93;;;4.90;99.90;;;;;;5121809;28;20463;-85
2023/12/05 00:51:59;;;;;;;5.80;5.23;;;4.90;99.90;;;;;;5124748;27;20471;-84
2023/12/05 00:54:26;;;;;;;4.77;4.27;;;4.90;99.90;;;;;;5138817;27;20487;-85
2023/12/05 00:56:53;;;;;;;6.70;5.37;;;5.00;99.90;;;;;;5124527;27;20465;-83
2023/12/05 00:59:19;;;;;;;6.23;5.07;;;5.00;99.90;;;;;;5121172;27;20857;-84
2023/12/05 01:01:47;;;;;;;6.43;5.27;;;5.00;99.90;;;;;;5120141;28;20447;-83
2023/12/05 01:04:13;;;;;;;5.30;4.33;;;5.00;99.90;;;;;;5120215;28;20456;-84
2023/12/05 01:06:40;;;;;;;5.47;4.73;;;5.00;99.90;;;;;;5127213;27;20537;-84
2023/12/05 01:09:10;;;;;;;6.20;4.97;;;4.90;99.90;;;;;;5125476;27;20590;-82
2023/12/05 01:11:37;;;;;;;4.70;4.30;;;4.90;99.90;;;;;;5118989;28;20472;-85
2023/12/05 01:14:03;;;;;;;5.70;4.60;;;4.90;99.90;;;;;;5130967;27;20856;-83
2023/12/05 01:16:30;;;;;;;5.20;4.70;;;4.90;99.90;;;;;;5119072;28;20474;-84
2023/12/05 01:18:57;;;;;;;6.70;5.33;;;4.90;99.90;;;;;;5117345;28;20482;-85
2023/12/05 01:21:23;;;;;;;5.00;4.50;;;4.80;99.90;;;;;;5123863;27;20535;-83
2023/12/05 01:23:49;;;;;;;6.90;5.53;;;4.90;99.90;;;;;;5125325;27;20476;-82
2023/12/05 01:26:17;;;;;;;5.40;4.90;;;4.90;99.90;;;;;;5126947;27;20208;-82
2023/12/05 01:28:44;;;;;;;6.30;4.70;;;4.90;99.90;;;;;;5130528;27;20475;-84
2023/12/05 01:31:11;;;;;;;5.90;4.97;;;4.90;99.90;;;;;;5119801;27;20457;-84
2023/12/05 01:33:38;;;;;;;7.33;5.87;;;5.00;99.90;;;;;;5118721;28;20451;-83
2023/12/05 01:36:10;;;;;;;5.90;5.10;;;5.00;99.90;;;;;;5121660;27;20461;-83
2023/12/05 01:38:36;;;;;;;9.27;5.67;;;5.00;99.90;;;;;;5117699;28;20480;-84
2023/12/05 01:41:04;;;;;;;5.90;5.20;;;5.00;99.90;;;;;;5117381;28;20454;-85
2023/12/05 01:43:32;;;;;;;5.27;4.77;;;5.10;99.90;;;;;;5130013;27;20538;-83
2023/12/05 01:45:59;;;;;;;6.53;5.30;;;5.00;99.90;;;;;;5121710;27;20452;-81
2023/12/05 01:48:27;;;;;;;5.90;4.90;;;5.10;99.90;;;;;;5117715;28;20477;-84
2023/12/05 01:50:55;;;;;;;6.20;5.20;;;5.10;99.90;;;;;;5121471;27;20459;-85
2023/12/05 01:53:23;;;;;;;6.10;5.07;;;5.00;99.90;;;;;;5127154;27;20536;-84
2023/12/05 01:55:51;;;;;;;8.03;6.50;;;5.00;99.90;;;;;;5117509;28;21020;-84
2023/12/05 01:58:19;;;;;;;7.20;6.47;;;5.10;99.90;;;;;;5118887;27;20928;-83
2023/12/05 02:00:47;;;;;;;6.80;5.60;;;5.00;99.90;;;;;;5127001;27;20452;-83
2023/12/05 02:03:15;;;;;;;7.17;5.47;;;5.00;99.90;;;;;;5117530;28;20799;-82
2023/12/05 02:05:42;;;;;;;6.43;5.40;;;5.00;99.90;;;;;;5118297;27;20459;-84
2023/12/05 02:08:11;;;;;;;7.33;5.43;;;5.10;99.90;;;;;;5119125;27;20480;-84
2023/12/05 02:10:38;;;;;;;7.03;5.43;;;5.10;99.90;;;;;;5116570;28;20447;-83
2023/12/05 02:13:05;;;;;;;5.80;4.60;;;5.10;99.90;;;;;;5116759;28;20494;-82
2023/12/05 02:15:32;;;;;;;5.90;4.67;;;5.10;99.90;;;;;;5117728;28;20491;-84
2023/12/05 02:18:11;;;;;;;6.73;4.90;;;5.00;99.90;;;;;;5128637;27;20495;-79
2023/12/05 02:20:46;;;;;;;5.70;4.80;;;5.00;99.90;;;;;;5118689;27;20546;-81
2023/12/05 02:23:51;;;;;;;5.77;4.13;;;5.10;99.90;;;;;;5118878;27;20485;-83
2023/12/05 02:26:28;;;;;;;6.23;4.67;;;5.10;99.90;;;;;;5116527;28;20452;-82
2023/12/05 02:28:56;;;;;;;8.23;4.10;;;5.10;99.90;;;;;;5119182;27;20484;-83
2023/12/05 02:31:23;;;;;;;5.00;4.47;;;5.10;99.90;;;;;;5119394;27;20453;-83
2023/12/05 02:33:50;;;;;;;4.63;4.03;;;5.10;99.90;;;;;;5130001;27;20481;-81
2023/12/05 02:36:23;;;;;;;5.70;4.20;;;5.10;99.90;;;;;;5119302;27;20454;-83
2023/12/05 02:39:02;;;;;;;5.53;4.90;;;5.20;99.90;;;;;;5115904;28;20563;-82
2023/12/05 02:41:33;;;;;;;5.40;4.50;;;5.10;99.90;;;;;;5128957;27;21002;-84
2023/12/05 02:44:07;;;;;;;6.00;4.87;;;5.10;99.90;;;;;;5136341;27;20508;-83
2023/12/05 02:46:35;;;;;;;5.70;4.80;;;5.10;99.90;;;;;;5136907;27;20450;-82
2023/12/05 02:49:04;;;;;;;4.73;4.00;;;5.20;99.90;;;;;;5119614;27;20486;-84
2023/12/05 02:51:30;;;;;;;5.43;4.73;;;5.20;99.90;;;;;;5129392;27;20826;-82
2023/12/05 02:54:01;;;;;;;7.83;5.13;;;5.20;99.90;;;;;;5128605;27;20459;-84
2023/12/05 02:56:29;;;;;;;5.60;4.03;;;5.20;99.90;;;;;;5116225;28;20449;-84
2023/12/05 02:58:55;;;;;;;5.57;4.17;;;5.20;99.90;;;;;;5115866;28;20468;-84
2023/12/05 03:01:24;;;;;;;6.00;5.40;;;5.20;99.90;;;;;;5116112;28;20445;-83
2023/12/05 03:03:50;;;;;;;6.40;5.23;;;5.20;99.90;;;;;;5132813;27;20997;-83
2023/12/05 03:06:17;;;;;;;4.23;3.83;;;5.20;99.90;;;;;;5124704;27;20945;-83
2023/12/05 03:08:44;;;;;;;6.10;4.30;;;5.30;99.90;;;;;;5114632;28;20469;-82
2023/12/05 03:11:11;;;;;;;5.47;4.97;;;5.20;99.90;;;;;;5123625;27;20554;-81
2023/12/05 03:13:40;;;;;;;5.30;4.80;;;5.20;99.90;;;;;;5115987;28;20478;-82
2023/12/05 03:16:07;;;;;;;6.00;4.60;;;5.20;99.90;;;;;;5115895;28;20487;-81
2023/12/05 03:18:35;;;;;;;7.00;5.03;;;5.20;99.90;;;;;;5116445;28;20500;-84
2023/12/05 03:21:02;;;;;;;6.13;4.53;;;5.30;99.90;;;;;;5131996;28;20828;-83
2023/12/05 03:23:29;;;;;;;4.60;4.20;;;5.20;99.90;;;;;;5121152;28;20583;-84
2023/12/05 03:25:56;;;;;;;4.17;3.73;;;5.30;99.90;;;;;;5137022;28;20455;-84
2023/12/05 03:28:23;;;;;;;4.90;3.53;;;5.30;99.90;;;;;;5125057;28;20527;-84
2023/12/05 03:30:49;;;;;;;6.50;4.67;;;5.30;99.90;;;;;;5116673;28;20449;-83
2023/12/05 03:33:16;;;;;;;4.87;4.23;;;5.30;99.90;;;;;;5116460;28;20542;-83
2023/12/05 03:35:45;;;;;;;4.67;3.90;;;5.30;99.90;;;;;;5120728;28;20479;-82
2023/12/05 03:38:11;;;;;;;5.17;4.67;;;5.30;99.90;;;;;;5127887;28;20487;-83
2023/12/05 03:40:38;;;;;;;5.47;4.23;;;5.30;99.90;;;;;;5122990;28;20462;-81
2023/12/05 03:43:05;;;;;;;6.27;4.97;;;5.30;99.90;;;;;;5124845;28;20459;-83
2023/12/05 03:45:32;;;;;;;4.00;3.63;;;5.30;99.90;;;;;;5136629;28;20462;-85
2023/12/05 03:47:58;;;;;;;6.33;3.97;;;5.30;99.90;;;;;;5136807;27;20473;-81
2023/12/05 03:50:25;;;;;;;5.40;4.30;;;5.30;99.90;;;;;;5122966;28;20460;-85
2023/12/05 03:52:53;;;;;;;4.50;3.40;;;5.30;99.90;;;;;;5120067;28;20454;-83
2023/12/05 03:55:20;;;;;;;4.77;3.30;;;5.30;99.90;;;;;;5123775;28;20503;-83
2023/12/05 03:57:47;;;;;;;3.53;3.23;;;5.30;99.90;;;;;;5116183;28;20475;-83
2023/12/05 04:00:15;;;;;;;4.30;3.03;;;5.30;99.90;;;;;;5115319;28;20449;-84
2023/12/05 04:02:42;;;;;;;5.30;3.80;;;5.30;99.90;;;;;;5115821;28;20959;-83
2023/12/05 04:05:09;;;;;;;4.00;3.50;;;5.20;99.90;;;;;;5119134;28;21061;-84
2023/12/05 04:07:37;;;;;;;4.30;3.67;;;5.30;99.90;;;;;;5115341;28;20559;-84
2023/12/05 04:10:06;;;;;;;4.53;4.00;;;5.30;99.90;;;;;;5123307;28;20459;-83
2023/12/05 04:12:33;;;;;;;5.23;4.20;;;5.30;99.90;;;;;;5116283;28;20556;-83
2023/12/05 04:15:00;;;;;;;5.00;4.13;;;5.30;99.90;;;;;;5132797;28;20498;-84
2023/12/05 04:17:27;;;;;;;4.70;3.73;;;5.30;99.90;;;;;;5116404;28;20464;-83
2023/12/05 04:19:53;;;;;;;5.50;4.20;;;5.40;99.90;;;;;;5130828;27;20915;-83
2023/12/05 04:22:20;;;;;;;5.03;3.93;;;5.40;99.90;;;;;;5118325;28;20451;-83
2023/12/05 04:24:47;;;;;;;5.27;3.80;;;5.40;99.90;;;;;;5123173;27;20545;-83
2023/12/05 04:27:15;;;;;;;5.80;4.80;;;5.40;99.90;;;;;;5126155;27;20458;-84
2023/12/05 04:29:43;;;;;;;5.57;4.67;;;5.50;99.90;;;;;;5128275;27;20541;-84
2023/12/05 04:32:10;;;;;;;4.93;4.47;;;5.50;99.90;;;;;;5129696;27;20489;-83
2023/12/05 04:34:41;;;;;;;4.67;3.93;;;5.50;99.90;;;;;;5139437;27;20459;-84
2023/12/05 04:37:08;;;;;;;6.50;5.00;;;5.50;99.90;;;;;;5137933;27;20455;-82
2023/12/05 04:39:35;;;;;;;6.83;4.80;;;5.60;99.90;;;;;;5131429;27;20535;-82
2023/12/05 04:42:02;;;;;;;8.00;4.70;;;5.60;99.90;;;;;;5139538;27;20457;-84
2023/12/05 04:44:30;;;;;;;5.00;4.47;;;5.60;99.90;;;;;;5137489;27;20942;-84
2023/12/05 04:46:58;;;;;;;4.90;4.40;;;5.60;99.90;;;;;;5134544;27;20468;-85
2023/12/05 04:49:24;;;;;;;6.50;4.53;;;5.60;99.90;;;;;;5128340;27;20510;-84
2023/12/05 04:51:52;;;;;;;4.43;4.03;;;5.60;99.90;;;;;;5120136;28;20452;-85
2023/12/05 04:54:18;;;;;;;5.40;4.60;;;5.60;99.90;;;;;;5120062;28;20582;-83
2023/12/05 04:56:45;;;;;;;5.93;4.70;;;5.60;99.90;;;;;;5120012;28;20491;-84
2023/12/05 04:59:12;;;;;;;4.60;3.97;;;5.60;99.90;;;;;;5120087;27;20487;-84
2023/12/05 05:01:40;;;;;;;5.33;4.37;;;5.60;99.90;;;;;;5126324;27;20565;-82
2023/12/05 05:04:07;;;;;;;5.83;5.23;;;5.60;99.90;;;;;;5124559;27;20541;-84
2023/12/05 05:06:34;;;;;;;7.03;4.60;;;5.70;99.90;;;;;;5130738;27;20459;-83
2023/12/05 05:09:00;;;;;;;6.40;5.63;;;5.70;99.90;;;;;;5121737;27;20477;-83
2023/12/05 05:11:27;;;;;;;7.83;5.10;;;5.60;99.90;;;;;;5117931;28;20562;-84
2023/12/05 05:13:54;;;;;;;6.70;5.73;;;5.60;99.90;;;;;;5126582;28;20461;-81
2023/12/05 05:16:21;;;;;;;6.53;5.73;;;5.60;99.90;;;;;;5132770;28;20490;-82
2023/12/05 05:18:49;;;;;;;4.83;3.87;;;5.60;99.90;;;;;;5149515;27;20508;-80
2023/12/05 05:21:19;;;;;;;4.70;4.10;;;5.70;99.90;;;;;;5134241;27;20530;-81
2023/12/05 05:23:48;;;;;;;7.37;5.27;;;5.70;99.90;;;;;;5137451;27;20521;-82
2023/12/05 05:26:15;;;;;;;5.90;4.50;;;5.80;99.90;;;;;;5143172;27;20508;-83
2023/12/05 05:28:44;;;;;;;7.10;5.47;;;5.80;99.90;;;;;;5126332;27;20544;-84
2023/12/05 05:31:13;;;;;;;7.47;5.23;;;5.80;99.90;;;;;;5131601;27;21018;-87
2023/12/05 05:33:40;;;;;;;5.67;5.07;;;5.80;99.90;;;;;;5131972;27;20537;-85
2023/12/05 05:36:09;;;;;;;5.17;4.57;;;5.80;99.90;;;;;;5139929;27;20475;-86
2023/12/05 05:38:36;;;;;;;4.43;3.67;;;5.80;99.90;;;;;;5125878;27;20483;-85
2023/12/05 05:41:07;;;;;;;4.67;4.23;;;5.90;99.90;;;;;;5137075;27;20449;-85
2023/12/05 05:43:34;;;;;;;5.73;4.37;;;5.90;99.90;;;;;;5138715;27;20460;-85
2023/12/05 05:46:01;;;;;;;4.80;4.03;;;5.90;99.90;;;;;;5128340;27;20446;-83
2023/12/05 05:48:28;;;;;;;5.37;4.33;;;5.90;99.90;;;;;;5140765;27;20464;-84
2023/12/05 05:50:55;;;;;;;4.67;4.00;;;5.90;99.90;;;;;;5137579;27;20524;-85
2023/12/05 05:53:23;;;;;;;7.13;4.77;;;5.90;99.90;;;;;;5135727;27;20826;-85
2023/12/05 05:55:50;;;;;;;4.13;3.47;;;6.00;99.90;;;;;;5138796;27;20479;-82
2023/12/05 05:58:17;;;;;;;4.70;3.83;;;5.90;99.90;;;;;;5138237;27;20474;-85
2023/12/05 06:00:44;;;;;;;4.10;3.70;;;6.00;99.90;;;;;;5142271;27;20453;-86
2023/12/05 06:03:11;;;;;;;4.50;3.60;;;6.00;99.90;;;;;;5137495;27;20490;-86
2023/12/05 06:05:38;;;;;;;5.10;4.27;;;6.00;99.90;;;;;;5124758;27;20451;-82
2023/12/05 06:08:05;;;;;;;4.50;3.83;;;5.90;99.90;;;;;;5119484;27;20487;-85
2023/12/05 06:10:35;;;;;;;5.03;4.13;;;6.00;99.90;;;;;;5125608;27;20449;-85
2023/12/05 06:13:01;;;;;;;6.20;4.67;;;6.00;99.90;;;;;;5137363;27;20460;-85
2023/12/05 06:15:28;;;;;;;4.80;4.00;;;6.10;99.90;;;;;;5125460;27;20584;-85
2023/12/05 06:17:55;;;;;;;5.77;4.33;;;6.00;99.90;;;;;;5125452;27;20478;-84
2023/12/05 06:20:22;;;;;;;5.90;4.67;;;6.10;99.90;;;;;;5121995;27;20937;-85
2023/12/05 06:22:48;;;;;;;6.43;3.93;;;6.00;99.90;;;;;;5127595;27;20871;-85
2023/12/05 06:25:15;;;;;;;4.40;3.87;;;6.00;99.90;;;;;;5125889;27;20461;-85
2023/12/05 06:27:44;;;;;;;5.17;4.43;;;6.00;99.90;;;;;;5122489;27;20481;-85
2023/12/05 06:30:12;;;;;;;5.43;4.20;;;6.10;99.90;;;;;;5131961;27;20463;-85
2023/12/05 06:32:39;;;;;;;4.33;3.20;;;6.10;99.90;;;;;;5133394;27;20451;-85
2023/12/05 06:35:07;;;;;;;4.70;4.13;;;6.10;99.90;;;;;;5137180;27;20476;-85
2023/12/05 06:37:33;;;;;;;4.13;3.63;;;6.10;99.90;;;;;;5133535;27;20475;-83
2023/12/05 06:40:01;;;;;;;4.60;3.73;;;6.20;99.90;;;;;;5124423;27;21004;-85
2023/12/05 06:42:27;;;;;;;4.30;3.40;;;6.20;99.90;;;;;;5137241;27;20456;-85
2023/12/05 06:44:56;;;;;;;6.30;4.20;;;6.20;99.90;;;;;;5124707;27;20460;-83
2023/12/05 06:47:22;;;;;;;5.17;4.67;;;6.20;99.90;;;;;;5129714;27;20541;-84
2023/12/05 06:49:49;;;;;;;6.57;4.27;;;6.30;99.90;;;;;;5125057;27;20453;-85
2023/12/05 06:52:16;;;;;;;6.70;4.57;;;6.30;99.90;;;;;;5132811;27;20467;-85
2023/12/05 06:54:43;;;;;;;5.20;4.50;;;6.20;99.90;;;;;;5130235;27;20524;-83
2023/12/05 06:57:09;;;;;;;9.07;4.43;;;6.30;99.90;;;;;;5133800;27;20495;-87
2023/12/05 06:59:38;;;;;;;6.30;4.90;;;6.30;99.90;;;;;;5133041;27;20452;-87
2023/12/05 07:02:07;;;;;;;5.20;4.70;;;6.30;99.90;;;;;;5130524;27;20967;-83
2023/12/05 07:04:33;;;;;;;5.27;4.37;;;6.30;99.90;;;;;;5129417;27;20459;-86
2023/12/05 07:07:00;;;;;;;6.10;5.50;;;6.30;99.90;;;;;;5126022;27;20448;-87
2023/12/05 07:09:27;;;;;;;5.93;3.80;;;6.20;99.90;;;;;;5122955;27;20527;-84
2023/12/05 07:11:54;;;;;;;7.50;5.93;;;6.30;99.90;;;;;;5134367;27;20474;-85
2023/12/05 07:14:20;;;;;;;7.03;5.47;;;6.20;99.90;;;;;;5127598;28;20466;-85
2023/12/05 07:16:47;;;;;;;5.87;5.30;;;6.20;99.90;;;;;;5120872;28;20880;-85
2023/12/05 07:19:15;;;;;;;8.47;5.90;;;6.30;99.90;;;;;;5128261;28;20472;-84
2023/12/05 07:21:42;;;;;;;7.30;6.00;;;6.30;99.90;;;;;;5128534;28;20455;-84
2023/12/05 07:24:09;;;;;;;7.37;5.20;;;6.20;99.90;;;;;;5132083;28;20453;-86
2023/12/05 07:26:36;;;;;;;6.73;5.50;;;6.30;99.90;;;;;;5125706;28;20452;-85
2023/12/05 07:29:03;;;;;;;7.53;5.77;;;6.30;99.90;;;;;;5130578;28;20480;-85
2023/12/05 07:31:30;;;;;;;6.70;5.40;;;6.30;99.90;;;;;;5134983;28;20456;-85
2023/12/05 07:33:57;;;;;;;7.30;5.90;;;6.30;99.90;;;;;;5122758;28;20550;-84
2023/12/05 07:36:25;;;;;;;6.73;5.20;;;6.30;99.90;;;;;;5129299;28;20488;-83
2023/12/05 07:38:52;;;;;;;10.03;5.30;;;6.30;99.90;;;;;;5122918;28;20571;-83
2023/12/05 07:41:19;;;;;;;6.53;5.17;;;6.30;99.90;;;;;;5123265;28;20439;-83
2023/12/05 07:43:46;;;;;;;6.53;5.40;;;6.30;99.90;;;;;;5126194;28;20452;-82
2023/12/05 07:46:13;;;;;;;6.90;5.07;;;6.30;99.90;;;;;;5129201;28;20432;-84
2023/12/05 07:48:40;;;;;;;6.10;4.87;;;6.40;99.90;;;;;;5123205;28;20484;-82
2023/12/05 07:51:07;;;;;;;7.37;6.00;;;6.40;99.90;;;;;;5126789;28;20445;-82
2023/12/05 07:53:35;;;;;;;6.60;5.27;;;6.50;99.90;;;;;;5124502;27;20445;-82
2023/12/05 07:56:03;;;;;;;6.00;5.10;;;6.40;99.90;;;;;;5131230;27;20688;-82
2023/12/05 07:58:29;;;;;;;6.70;6.00;;;6.50;99.90;;;;;;5131078;27;20848;-82
2023/12/05 08:00:56;;;;;;;7.73;6.00;;;6.50;99.90;;;;;;5130782;27;20449;-83
2023/12/05 08:03:23;;;;;;;6.30;5.40;;;6.50;99.90;;;;;;5126479;27;20456;-82
2023/12/05 08:05:50;;;;;;;9.10;6.73;;;6.60;99.90;;;;;;5130399;27;20493;-83
2023/12/05 08:08:17;;;;;;;19.10;8.20;;;6.60;99.90;;;;;;5129773;27;20474;-80
2023/12/05 08:10:45;;;;;;;10.20;6.40;;;6.60;99.90;;;;;;5129943;27;20463;-82
2023/12/05 08:13:13;;;;;;;7.40;5.43;;;6.60;99.90;;;;;;5133644;27;20529;-83
2023/12/05 08:15:40;;;;;;;6.10;5.33;;;6.60;99.90;;;;;;5130149;27;20447;-82
2023/12/05 08:18:07;;;;;;;5.70;5.10;;;6.70;99.90;;;;;;5131134;27;20463;-82
2023/12/05 08:20:33;;;;;;;5.50;4.37;;;6.70;99.90;;;;;;5126056;27;20863;-82
2023/12/05 08:23:00;;;;;;;7.97;5.73;;;6.70;99.90;;;;;;5128656;27;20536;-82
2023/12/05 08:25:27;;;;;;;6.07;5.10;;;6.70;99.90;;;;;;5128141;27;20524;-83
2023/12/05 08:27:55;;;;;;;5.80;4.90;;;6.70;99.90;;;;;;5131818;27;20628;-82
2023/12/05 08:30:22;;;;;;;6.60;4.90;;;6.80;99.90;;;;;;5134276;27;20452;-82
2023/12/05 08:32:58;;;;;;;7.53;4.60;;;6.80;99.90;;;;;;5140069;27;20458;-83
2023/12/05 08:35:32;;;;;;;5.47;4.43;;;6.90;99.90;;;;;;5132765;27;20441;-83
2023/12/05 08:37:59;;;;;;;5.10;4.50;;;6.90;99.90;;;;;;5125937;27;20999;-79
2023/12/05 08:40:26;;;;;;;4.40;3.97;;;6.90;99.90;;;;;;5129961;27;20444;-82
2023/12/05 08:42:53;;;;;;;6.90;4.50;;;6.90;99.90;;;;;;5132436;27;20470;-81
2023/12/05 08:45:24;;;;;;;4.13;3.40;;;6.90;99.90;;;;;;5119574;27;20493;-82
2023/12/05 08:47:53;;;;;;;5.10;4.40;;;6.90;99.90;;;;;;5133249;27;20460;-82
2023/12/05 08:50:21;;;;;;;6.27;4.20;;;6.90;99.90;;;;;;5120417;27;20471;-81
2023/12/05 08:52:48;;;;;;;5.63;4.30;;;7.00;99.90;;;;;;5131849;27;20477;-82
2023/12/05 08:55:15;;;;;;;4.73;3.97;;;7.10;99.90;;;;;;5135205;27;20960;-80
2023/12/05 08:57:42;;;;;;;3.60;3.10;;;7.20;99.90;;;;;;5128049;27;20579;-83
2023/12/05 09:00:09;;;;;;;6.00;3.77;;;7.30;99.90;;;;;;5127454;27;20447;-82
2023/12/05 09:02:37;;;;;;;5.97;4.30;;;7.40;99.90;;;;;;5127611;27;20496;-83
2023/12/05 09:05:05;;;;;;;5.63;4.13;;;7.40;99.90;;;;;;5130485;27;20460;-81
2023/12/05 09:07:32;;;;;;;4.17;3.30;;;7.50;99.90;;;;;;5134236;27;20483;-84
2023/12/05 09:09:59;;;;;;;4.67;3.33;;;7.50;99.90;;;;;;5124042;27;21073;-82
2023/12/05 09:12:26;;;;;;;5.20;3.07;;;7.50;99.90;;;;;;5129213;27;20449;-83
2023/12/05 09:14:52;;;;;;;3.27;2.60;;;7.60;99.90;;;;;;5131685;27;20541;-81
2023/12/05 09:17:20;;;;;;;5.10;3.00;;;7.60;99.90;;;;;;5120402;27;20481;-81
2023/12/05 09:19:50;;;;;;;3.03;2.43;;;7.60;99.90;;;;;;5122811;27;20459;-82
2023/12/05 09:22:17;;;;;;;3.13;2.73;;;7.70;99.90;;;;;;5134527;27;20450;-82
2023/12/05 09:24:44;;;;;;;3.70;2.70;;;7.80;99.90;;;;;;5136802;27;20461;-82
2023/12/05 09:27:11;;;;;;;5.60;2.50;;;7.90;99.90;;;;;;5127560;27;20442;-83
2023/12/05 09:29:38;;;;;;;3.13;2.20;;;7.90;99.90;;;;;;5127631;27;20508;-83
2023/12/05 09:32:05;;;;;;;4.07;2.50;;;8.00;99.90;;;;;;5129392;27;20454;-82
2023/12/05 09:34:32;;;;;;;2.90;2.37;;;8.00;99.90;;;;;;5121087;27;20813;-82
2023/12/05 09:37:00;;;;;;;3.07;2.60;;;8.00;99.90;;;;;;5126776;27;20475;-83
2023/12/05 09:39:29;;;;;;;5.60;2.50;;;8.10;99.90;;;;;;5134132;27;20500;-83
2023/12/05 09:41:57;;;;;;;3.37;2.57;;;8.20;99.90;;;;;;5123062;27;20462;-84
2023/12/05 09:44:27;;;;;;;2.73;2.30;;;8.30;99.90;;;;;;5127353;27;20459;-83
2023/12/05 09:46:58;;;;;;;3.00;2.30;;;8.40;99.90;;;;;;5135263;27;20451;-82
2023/12/05 09:49:28;;;;;;;2.57;2.00;;;8.40;99.90;;;;;;5130326;27;20542;-82
2023/12/05 09:51:55;;;;;;;2.60;1.90;;;8.40;99.90;;;;;;5125546;27;20469;-81
2023/12/05 09:54:25;;;;;;;2.60;1.77;;;8.40;99.90;;;;;;5126168;27;20455;-82
2023/12/05 09:56:54;;;;;;;2.53;1.70;;;8.60;99.90;;;;;;5129828;27;20495;-82
2023/12/05 09:59:22;;;;;;;2.30;1.70;;;8.60;99.90;;;;;;5128465;27;21004;-82
2023/12/05 10:01:49;;;;;;;2.47;1.80;;;8.70;99.90;;;;;;5129101;27;20445;-83
2023/12/05 10:04:18;;;;;;;2.80;1.73;;;8.70;99.90;;;;;;5123215;27;20541;-82
2023/12/05 10:06:48;;;;;;;2.57;1.57;;;8.70;99.90;;;;;;5127060;27;20937;-82
2023/12/05 10:09:16;;;;;;;1.90;1.43;;;8.80;99.90;;;;;;5121783;27;20482;-81
2023/12/05 10:11:45;;;;;;;2.17;1.47;;;8.70;99.90;;;;;;5124050;27;20452;-80
2023/12/05 10:14:12;;;;;;;2.30;1.47;;;8.70;99.90;;;;;;5128532;27;20463;-82
2023/12/05 10:16:40;;;;;;;2.20;1.50;;;8.70;99.90;;;;;;5124360;27;20494;-82
2023/12/05 10:19:09;;;;;;;1.90;1.50;;;8.80;99.90;;;;;;5120445;27;20462;-82
2023/12/05 10:21:36;;;;;;;1.90;1.43;;;8.90;99.90;;;;;;5128480;27;20474;-82
2023/12/05 10:24:03;;;;;;;5.00;2.60;;;8.90;99.90;;;;;;5127728;27;20446;-81
2023/12/05 10:26:30;;;;;;;2.70;2.00;;;8.90;99.90;;;;;;5125322;27;20494;-82
2023/12/05 10:28:58;;;;;;;2.07;1.20;;;8.90;99.90;;;;;;5129262;27;20482;-81
2023/12/05 10:31:25;;;;;;;2.10;1.40;;;8.90;99.90;;;;;;5129610;27;20451;-81
2023/12/05 10:34:05;;;;;;;2.00;1.10;;;8.90;99.90;;;;;;5125175;27;20460;-81
2023/12/05 10:36:32;;;;;;;3.90;1.50;;;8.90;99.90;;;;;;5130186;27;20480;-81
2023/12/05 10:38:59;;;;;;;1.70;1.23;;;8.90;99.90;;;;;;5123983;27;20986;-81
2023/12/05 10:41:28;;;;;;;2.17;1.10;;;8.90;99.90;;;;;;5122634;27;20451;-82
2023/12/05 10:43:56;;;;;;;2.07;1.17;;;8.80;99.90;;;;;;5124947;27;20462;-81
2023/12/05 10:46:25;;;;;;;2.00;1.40;;;8.90;99.90;;;;;;5123803;27;20444;-80
2023/12/05 10:48:52;;;;;;;2.03;1.30;;;8.80;99.90;;;;;;5123262;27;20464;-80
2023/12/05 10:51:19;;;;;;;1.90;1.40;;;8.80;99.90;;;;;;5127610;27;20440;-81
2023/12/05 10:53:46;;;;;;;1.90;1.60;;;8.70;99.90;;;;;;5122598;27;20539;-81
2023/12/05 10:56:14;;;;;;;1.80;1.37;;;8.70;99.90;;;;;;5133230;27;20541;-81
2023/12/05 10:58:42;;;;;;;3.33;1.47;;;8.80;99.90;;;;;;5124644;27;20872;-81
2023/12/05 11:01:12;;;;;;;2.53;1.23;;;8.70;99.90;;;;;;5125701;27;20456;-82
2023/12/05 11:03:41;;;;;;;2.00;1.50;;;8.80;99.90;;;;;;5125808;27;20455;-82
2023/12/05 11:06:09;;;;;;;4.50;1.47;;;8.80;99.90;;;;;;5124635;27;20462;-84
2023/12/05 11:08:36;;;;;;;1.87;1.30;;;8.90;99.90;;;;;;5129260;27;20477;-83
2023/12/05 11:11:04;;;;;;;2.23;1.10;;;9.00;99.90;;;;;;5128409;27;20450;-82
2023/12/05 11:13:32;;;;;;;2.40;1.30;;;8.90;99.90;;;;;;5117160;27;20457;-81
2023/12/05 11:16:08;;;;;;;2.70;1.23;;;8.90;99.90;;;;;;5118772;28;20468;-80
2023/12/05 11:18:37;;;;;;;2.00;1.30;;;8.90;99.90;;;;;;5124572;27;20535;-82
2023/12/05 11:21:28;;;;;;;13.63;7.90;;;8.80;99.90;;;;;;5127639;28;20460;-81
2023/12/05 11:24:21;;;;;;;2.33;1.50;;;8.90;99.90;;;;;;5129073;28;20451;-81
2023/12/05 11:27:02;;;;;;;1.80;1.13;;;8.80;99.90;;;;;;5133525;28;20534;-84
2023/12/05 11:30:16;;;;;;;3.20;1.10;;;8.80;99.90;;;;;;5135735;27;20482;-85
2023/12/05 11:32:55;;;;;;;1.70;1.00;;;8.60;99.90;;;;;;5137989;27;20462;-80
2023/12/05 11:35:33;;;;;;;2.27;1.27;;;8.60;99.90;;;;;;5139542;27;20489;-82
2023/12/05 11:38:09;;;;;;;2.23;1.30;;;8.50;99.90;;;;;;5124878;27;20490;-79
2023/12/05 11:40:36;;;;;;;1.80;1.20;;;8.50;99.90;;;;;;5128865;27;20455;-81
2023/12/05 11:43:07;;;;;;;1.60;1.00;;;8.50;99.90;;;;;;5130808;27;20821;-82
2023/12/05 11:45:38;;;;;;;1.90;1.40;;;8.40;99.90;;;;;;5142290;27;20471;-82
2023/12/05 11:48:04;;;;;;;1.90;1.20;;;8.40;99.90;;;;;;5128815;27;20466;-82
2023/12/05 11:50:40;;;;;;;2.00;1.30;;;8.50;99.90;;;;;;5134051;27;20455;-82
2023/12/05 11:53:08;;;;;;;2.00;1.00;;;8.60;99.90;;;;;;5132679;27;20446;-82
2023/12/05 11:55:36;;;;;;;2.30;1.13;;;8.60;99.90;;;;;;5127278;27;20447;-82
2023/12/05 11:58:03;;;;;;;1.70;1.00;;;8.50;99.90;;;;;;5127296;27;20502;-82
2023/12/05 12:00:31;;;;;;;2.37;1.00;;;8.50;99.90;;;;;;5128025;27;20966;-82
2023/12/05 12:02:59;;;;;;;2.67;0.80;;;8.40;99.90;;;;;;5134689;27;20454;-82
2023/12/05 12:05:26;;;;;;;1.80;0.90;;;8.40;99.90;;;;;;5128298;27;20458;-82
2023/12/05 12:07:56;;;;;;;3.60;1.70;;;8.40;99.90;;;;;;5128815;27;20489;-80
2023/12/05 12:10:26;;;;;;;3.90;0.90;;;8.40;99.90;;;;;;5124384;27;20867;-81
2023/12/05 12:12:53;;;;;;;2.13;1.00;;;8.50;99.90;;;;;;5124282;27;20466;-82
2023/12/05 12:15:22;;;;;;;4.77;1.00;;;8.60;99.90;;;;;;5126135;27;20468;-83
2023/12/05 12:17:49;;;;;;;1.50;0.90;;;8.60;99.90;;;;;;5121136;27;20491;-80
2023/12/05 12:20:17;;;;;;;1.67;0.77;;;8.60;99.90;;;;;;5128564;27;20461;-81
2023/12/05 12:22:49;;;;;;;3.23;0.90;;;8.50;99.90;;;;;;5133392;27;20982;-82
2023/12/05 12:25:17;;;;;;;2.00;0.90;;;8.60;99.90;;;;;;5123536;27;20814;-82
2023/12/05 12:27:45;;;;;;;1.83;0.90;;;8.70;99.90;;;;;;5128225;27;20504;-80
2023/12/05 12:30:15;;;;;;;2.30;0.80;;;8.60;99.90;;;;;;5110364;27;20535;-83
2023/12/05 12:32:56;;;;;;;1.50;0.80;;;8.70;99.90;;;;;;5128396;27;20452;-79
2023/12/05 12:35:23;;;;;;;2.70;0.90;;;8.70;99.90;;;;;;5135560;27;20462;-81
2023/12/05 12:37:51;;;;;;;2.00;1.10;;;8.80;99.90;;;;;;5122844;27;20513;-81
2023/12/05 12:40:18;;;;;;;1.60;0.80;;;8.80;99.90;;;;;;5120129;27;20459;-80
2023/12/05 12:42:50;;;;;;;1.50;0.83;;;8.70;99.90;;;;;;5124513;27;20459;-81
2023/12/05 12:45:16;;;;;;;2.00;0.90;;;8.70;99.90;;;;;;5123380;27;20452;-80
2023/12/05 12:47:43;;;;;;;1.33;0.60;;;8.60;99.90;;;;;;5128322;27;20474;-81
2023/12/05 12:50:11;;;;;;;3.67;1.00;;;8.50;99.90;;;;;;5124106;27;20455;-80
2023/12/05 12:52:38;;;;;;;4.03;1.10;;;8.50;99.90;;;;;;5125348;27;20446;-79
2023/12/05 12:55:07;;;;;;;2.33;1.30;;;8.60;99.90;;;;;;5129810;27;20458;-80
2023/12/05 12:57:35;;;;;;;1.60;1.10;;;8.70;99.90;;;;;;5126198;27;20483;-77
2023/12/05 13:00:05;;;;;;;1.80;1.00;;;8.70;99.90;;;;;;5126617;27;20505;-79
2023/12/05 13:02:32;;;;;;;2.40;0.93;;;8.70;99.90;;;;;;5123334;27;20455;-81